createdAt,value
2023-05-16T00:03:28.503Z,12.91
2023-05-16T00:07:31.535Z,12.95
2023-05-16T00:11:34.191Z,13.02
2023-05-16T00:15:38.700Z,13.04
2023-05-16T00:19:42.454Z,13.01
2023-05-16T00:23:44.709Z,13.04
2023-05-16T00:27:46.838Z,13.07
2023-05-16T00:31:49.511Z,13.12
2023-05-16T00:35:54.067Z,13.12
2023-05-16T00:39:56.262Z,13.19
2023-05-16T00:43:58.407Z,13.23
2023-05-16T00:48:00.619Z,13.19
2023-05-16T00:52:04.124Z,13.10
2023-05-16T00:56:07.088Z,13.22
2023-05-16T01:00:10.968Z,12.95
2023-05-16T01:04:17.733Z,12.74
2023-05-16T01:08:22.313Z,12.60
2023-05-16T01:12:36.644Z,12.57
2023-05-16T01:16:57.183Z,12.50
2023-05-16T01:21:04.160Z,12.37
2023-05-16T01:25:21.852Z,11.86
2023-05-16T01:29:23.967Z,11.46
2023-05-16T01:33:26.071Z,11.21
2023-05-16T01:37:53.055Z,11.12
2023-05-16T01:42:06.240Z,11.01
2023-05-16T01:46:15.394Z,10.98
2023-05-16T01:50:19.116Z,10.96
2023-05-16T01:54:23.641Z,10.86
2023-05-16T01:58:29.594Z,10.75
2023-05-16T02:02:33.672Z,10.60
2023-05-16T02:06:35.896Z,10.46
2023-05-16T02:10:44.132Z,10.45
2023-05-16T02:14:46.459Z,10.44
2023-05-16T02:18:48.735Z,10.43
2023-05-16T02:22:50.840Z,10.43
2023-05-16T02:26:52.932Z,10.37
2023-05-16T02:31:01.672Z,10.40
2023-05-16T02:35:04.599Z,10.47
2023-05-16T02:39:07.837Z,10.53
2023-05-16T02:43:10.365Z,10.60
2023-05-16T02:47:12.774Z,10.75
2023-05-16T02:51:14.894Z,10.81
2023-05-16T02:55:22.423Z,10.85
2023-05-16T02:59:24.797Z,10.88
2023-05-16T03:03:27.049Z,10.90
2023-05-16T03:07:29.557Z,10.96
2023-05-16T03:11:32.139Z,11.08
2023-05-16T03:15:34.358Z,11.09
2023-05-16T03:19:36.500Z,11.10
2023-05-16T03:23:38.629Z,11.20
2023-05-16T03:27:40.898Z,11.30
2023-05-16T03:31:43.284Z,11.40
2023-05-16T03:35:46.321Z,11.51
2023-05-16T03:39:48.491Z,11.55
2023-05-16T03:43:50.755Z,11.57
2023-05-16T03:47:52.962Z,11.60
2023-05-16T03:51:55.630Z,11.69
2023-05-16T03:55:57.724Z,11.77
2023-05-16T04:00:00.971Z,11.74
2023-05-16T04:04:03.192Z,11.67
2023-05-16T04:08:05.527Z,11.58
2023-05-16T04:12:12.345Z,11.64
2023-05-16T04:16:14.471Z,11.77
2023-05-16T04:20:17.207Z,11.81
2023-05-16T04:24:19.634Z,11.79
2023-05-16T04:28:22.417Z,11.98
2023-05-16T04:32:25.018Z,12.18
2023-05-16T04:36:30.130Z,12.24
2023-05-16T04:40:32.828Z,12.36
2023-05-16T04:44:34.942Z,12.44
2023-05-16T04:48:37.055Z,12.48
2023-05-16T04:52:39.169Z,12.51
2023-05-16T04:56:41.423Z,12.60
2023-05-16T05:00:43.568Z,12.70
2023-05-16T05:04:45.764Z,12.75
2023-05-16T05:08:48.080Z,12.77
2023-05-16T05:12:50.133Z,12.86
2023-05-16T05:16:52.286Z,13.01
2023-05-16T05:20:54.601Z,13.06
2023-05-16T05:24:56.768Z,13.15
2023-05-16T05:29:05.301Z,13.24
2023-05-16T05:33:08.360Z,13.32
2023-05-16T05:37:10.787Z,13.43
2023-05-16T05:41:12.921Z,13.69
2023-05-16T05:45:16.263Z,13.77
2023-05-16T05:49:18.541Z,13.82
2023-05-16T05:53:23.575Z,13.68
2023-05-16T05:57:26.283Z,12.71
2023-05-16T06:01:30.172Z,12.47
2023-05-16T06:05:32.282Z,12.44
2023-05-16T06:09:34.295Z,12.40
2023-05-16T06:13:36.592Z,12.37
2023-05-16T06:17:39.091Z,12.38
2023-05-16T06:21:41.244Z,12.45
2023-05-16T06:25:43.703Z,12.15
2023-05-16T06:29:45.964Z,11.72
2023-05-16T06:33:48.310Z,11.44
2023-05-16T06:37:50.481Z,11.35
2023-05-16T06:41:56.169Z,11.28
2023-05-16T06:45:59.237Z,11.15
2023-05-16T06:50:01.558Z,11.07
2023-05-16T06:54:04.406Z,10.95
2023-05-16T06:58:06.589Z,10.93
2023-05-16T07:02:08.793Z,10.91
2023-05-16T07:06:10.906Z,10.92
2023-05-16T07:10:13.148Z,10.96
2023-05-16T07:14:15.399Z,11.00
2023-05-16T07:18:17.677Z,11.01
2023-05-16T07:22:19.916Z,11.05
2023-05-16T07:32:16.744Z,11.00
2023-05-16T07:36:19.215Z,11.06
2023-05-16T07:40:28.396Z,11.09
2023-05-16T07:44:31.313Z,11.19
2023-05-16T07:48:33.587Z,11.22
2023-05-16T07:52:35.682Z,11.24
2023-05-16T07:56:37.844Z,11.26
2023-05-16T08:00:40.439Z,11.22
2023-05-16T08:04:42.486Z,11.19
2023-05-16T08:08:44.577Z,11.22
2023-05-16T08:12:47.193Z,11.29
2023-05-16T08:16:49.397Z,11.31
2023-05-16T08:20:51.481Z,11.37
2023-05-16T08:24:57.952Z,11.41
2023-05-16T08:29:00.041Z,11.44
2023-05-16T08:33:05.142Z,11.55
2023-05-16T08:37:07.451Z,11.53
2023-05-16T08:41:09.547Z,11.56
2023-05-16T08:45:11.897Z,11.60
2023-05-16T08:49:14.512Z,11.70
2023-05-16T08:53:22.739Z,11.85
2023-05-16T08:57:26.307Z,11.95
2023-05-16T09:01:29.004Z,12.12
2023-05-16T09:05:32.470Z,12.24
2023-05-16T09:09:34.622Z,12.37
2023-05-16T09:13:39.345Z,12.55
2023-05-16T09:17:46.770Z,12.74
2023-05-16T09:21:49.233Z,13.01
2023-05-16T09:25:53.655Z,13.29
2023-05-16T09:29:57.706Z,13.37
2023-05-16T09:34:00.149Z,13.45
2023-05-16T09:38:02.586Z,13.36
2023-05-16T09:42:05.011Z,13.34
2023-05-16T09:46:07.272Z,13.30
2023-05-16T09:50:09.580Z,13.47
2023-05-16T09:54:11.687Z,13.68
2023-05-16T09:58:18.011Z,13.93
2023-05-16T10:02:20.967Z,13.98
2023-05-16T10:06:23.711Z,14.23
2023-05-16T10:10:28.714Z,14.57
2023-05-16T10:14:35.973Z,14.57
2023-05-16T10:18:39.716Z,14.80
2023-05-16T10:22:44.381Z,14.89
2023-05-16T10:26:46.522Z,14.98
2023-05-16T10:30:49.022Z,15.15
2023-05-16T10:34:52.009Z,15.17
2023-05-16T10:38:55.673Z,15.24
2023-05-16T10:42:59.821Z,15.31
2023-05-16T10:47:04.665Z,15.52
2023-05-16T10:51:22.476Z,15.57
2023-05-16T10:55:24.788Z,15.75
2023-05-16T10:59:28.714Z,15.55
2023-05-16T11:03:31.154Z,15.59
2023-05-16T11:07:36.683Z,15.67
2023-05-16T11:12:04.160Z,15.63
2023-05-16T11:16:48.303Z,15.87
2023-05-16T11:20:53.036Z,16.01
2023-05-16T11:25:06.836Z,15.94
2023-05-16T11:29:09.008Z,15.77
2023-05-16T11:33:13.067Z,16.16
2023-05-16T11:37:16.059Z,16.45
2023-05-16T11:41:18.933Z,16.72
2023-05-16T11:45:24.599Z,16.59
2023-05-16T11:49:28.938Z,16.80
2023-05-16T11:53:31.294Z,17.09
2023-05-16T11:57:34.281Z,17.09
2023-05-16T12:01:40.295Z,17.18
2023-05-16T12:06:01.025Z,16.73
2023-05-16T12:10:11.177Z,16.48
2023-05-16T12:14:14.593Z,16.58
2023-05-16T12:18:17.444Z,16.65
2023-05-16T12:22:20.515Z,17.11
2023-05-16T12:26:33.732Z,17.31
2023-05-16T12:30:35.911Z,17.41
2023-05-16T12:34:38.094Z,17.59
2023-05-16T12:38:40.461Z,17.72
2023-05-16T12:42:44.985Z,17.39
2023-05-16T12:46:51.595Z,17.58
2023-05-16T12:50:53.851Z,17.75
2023-05-16T12:54:55.952Z,17.91
2023-05-16T12:58:58.131Z,17.80
2023-05-16T13:03:00.447Z,17.76
2023-05-16T13:07:04.883Z,17.51
2023-05-16T13:11:08.111Z,17.62
2023-05-16T13:15:15.502Z,17.64
2023-05-16T13:19:17.860Z,17.66
2023-05-16T13:23:20.491Z,17.65
2023-05-16T13:27:22.681Z,17.41
2023-05-16T13:31:24.912Z,17.39
2023-05-16T13:35:27.396Z,17.25
2023-05-16T13:39:29.813Z,17.16
2023-05-16T13:43:33.305Z,17.10
2023-05-16T13:47:37.871Z,16.94
2023-05-16T13:51:40.419Z,16.73
2023-05-16T13:55:42.808Z,16.60
2023-05-16T14:00:11.593Z,16.53
2023-05-16T14:04:13.765Z,16.36
2023-05-16T14:08:15.993Z,16.30
2023-05-16T14:12:18.326Z,16.34
2023-05-16T14:16:23.059Z,16.42
2023-05-16T14:20:25.461Z,16.46
2023-05-16T14:24:29.046Z,16.47
2023-05-16T14:28:32.935Z,16.50
2023-05-16T14:32:35.253Z,16.53
2023-05-16T14:36:37.822Z,16.35
2023-05-16T14:40:40.261Z,16.11
2023-05-16T14:44:42.642Z,15.71
2023-05-16T14:48:44.829Z,15.38
2023-05-16T14:52:47.262Z,15.19
2023-05-16T14:56:50.936Z,15.03
2023-05-16T15:00:53.431Z,14.98
2023-05-16T15:04:56.036Z,14.93
2023-05-16T15:08:58.318Z,14.92
2023-05-16T15:13:00.474Z,14.81
2023-05-16T15:17:04.423Z,14.70
2023-05-16T15:21:07.607Z,14.71
2023-05-16T15:25:11.514Z,14.73
2023-05-16T15:29:13.867Z,14.73
2023-05-16T15:33:16.025Z,14.72
2023-05-16T15:37:18.170Z,14.73
2023-05-16T15:41:37.146Z,14.83
2023-05-16T15:45:44.602Z,14.87
2023-05-16T15:49:47.737Z,14.98
2023-05-16T15:53:49.907Z,15.07
2023-05-16T15:57:52.226Z,15.15
2023-05-16T16:01:54.442Z,15.10
2023-05-16T16:05:57.039Z,15.19
2023-05-16T16:09:59.715Z,15.14
2023-05-16T16:14:01.939Z,15.11
2023-05-16T16:18:04.434Z,15.03
2023-05-16T16:22:06.766Z,15.01
2023-05-16T16:26:08.935Z,15.00
2023-05-16T16:30:11.718Z,15.00
2023-05-16T16:34:14.110Z,14.92
2023-05-16T16:38:16.771Z,14.97
2023-05-16T16:42:19.207Z,15.07
2023-05-16T16:46:23.169Z,15.10
2023-05-16T16:50:25.522Z,15.12
2023-05-16T16:54:28.685Z,15.26
2023-05-16T16:58:30.833Z,15.27
2023-05-16T17:02:33.755Z,15.32
2023-05-16T17:06:36.207Z,15.36
2023-05-16T17:10:39.650Z,15.40
2023-05-16T17:14:44.847Z,15.42
2023-05-16T17:19:04.083Z,15.48
2023-05-16T17:23:06.336Z,15.34
2023-05-16T17:27:08.903Z,15.42
2023-05-16T17:31:11.430Z,15.27
2023-05-16T17:35:13.562Z,15.25
2023-05-16T17:39:16.386Z,15.16
2023-05-16T17:43:18.760Z,15.01
2023-05-16T17:47:21.120Z,14.98
2023-05-16T17:51:23.825Z,14.89
2023-05-16T17:55:26.475Z,14.78
2023-05-16T17:59:28.980Z,14.68
2023-05-16T18:03:31.794Z,14.58
2023-05-16T18:07:34.671Z,14.30
2023-05-16T18:11:39.045Z,14.15
2023-05-16T18:15:41.532Z,13.74
2023-05-16T18:19:43.853Z,13.70
2023-05-16T18:23:46.264Z,13.69
2023-05-16T18:27:48.461Z,13.61
2023-05-16T18:31:50.900Z,13.55
2023-05-16T18:35:55.404Z,13.51
2023-05-16T18:39:58.514Z,13.57
2023-05-16T18:44:00.637Z,13.55
2023-05-16T18:48:03.011Z,13.56
2023-05-16T18:52:07.996Z,13.55
2023-05-16T18:56:10.473Z,13.78
2023-05-16T19:00:13.455Z,13.80
2023-05-16T19:04:16.290Z,13.93
2023-05-16T19:08:20.950Z,13.92
2023-05-16T19:12:23.631Z,13.91
2023-05-16T19:16:26.469Z,13.96
2023-05-16T19:20:29.266Z,13.95
2023-05-16T19:24:32.092Z,13.90
2023-05-16T19:28:34.796Z,13.87
2023-05-16T19:32:37.050Z,13.88
2023-05-16T19:36:39.414Z,13.83
2023-05-16T19:40:42.279Z,13.86
2023-05-16T19:44:46.266Z,13.78
2023-05-16T19:48:50.586Z,13.73
2023-05-16T19:52:53.207Z,13.72
2023-05-16T20:32:24.692Z,13.84
2023-05-16T20:36:27.861Z,13.77
2023-05-16T20:40:30.184Z,13.77
2023-05-16T20:44:33.869Z,13.73
2023-05-16T20:48:36.800Z,13.69
2023-05-16T20:52:40.627Z,13.73
2023-05-16T20:56:43.016Z,13.66
2023-05-16T21:00:45.200Z,13.62
2023-05-16T21:04:47.819Z,13.53
2023-05-16T21:13:08.137Z,13.60
2023-05-16T21:17:10.612Z,13.65
2023-05-16T21:21:12.833Z,13.70
2023-05-16T21:25:15.174Z,13.68
2023-05-16T21:29:19.424Z,13.61
2023-05-16T21:33:22.013Z,13.60
2023-05-16T21:37:24.361Z,13.59
2023-05-16T21:41:27.452Z,13.62
2023-05-16T21:45:29.888Z,13.62
2023-05-16T21:49:33.175Z,13.61
2023-05-16T21:53:35.991Z,13.60
2023-05-16T21:57:38.122Z,13.64
2023-05-16T22:01:40.515Z,13.59
2023-05-16T22:05:43.172Z,13.64
2023-05-16T22:09:45.734Z,13.59
2023-05-16T22:13:47.975Z,13.60
2023-05-16T22:17:51.337Z,13.62
2023-05-16T22:21:53.713Z,13.59
2023-05-16T22:25:55.999Z,13.53
2023-05-16T22:29:58.247Z,13.56
2023-05-16T22:34:02.723Z,13.57
2023-05-16T22:38:05.499Z,13.48
2023-05-16T22:42:07.784Z,13.56
2023-05-16T22:46:09.918Z,13.52
2023-05-16T22:50:12.441Z,13.45
2023-05-16T22:54:15.301Z,13.41
2023-05-16T22:58:17.480Z,13.27
2023-05-16T23:02:19.710Z,13.23
2023-05-16T23:06:21.831Z,13.10
2023-05-16T23:10:23.995Z,12.95
2023-05-16T23:14:27.444Z,12.89
2023-05-16T23:18:29.759Z,13.02
2023-05-16T23:22:32.057Z,12.81
2023-05-16T23:26:34.462Z,12.55
2023-05-16T23:30:36.662Z,12.49
2023-05-16T23:34:38.925Z,12.46
2023-05-16T23:38:41.143Z,12.56
2023-05-16T23:42:43.286Z,12.70
2023-05-16T23:46:45.543Z,12.56
2023-05-16T23:50:48.030Z,12.38
2023-05-16T23:54:51.586Z,12.39
2023-05-16T23:58:53.913Z,12.53
